createdAt,value
2023-05-04T00:00:20.067Z,5.93
2023-05-04T00:03:22.267Z,5.92
2023-05-04T00:06:24.287Z,5.92
2023-05-04T00:09:26.276Z,5.88
2023-05-04T00:12:28.616Z,5.89
2023-05-04T00:15:30.540Z,5.89
2023-05-04T00:18:32.521Z,5.88
2023-05-04T00:21:34.506Z,5.83
2023-05-04T00:24:36.598Z,5.81
2023-05-04T00:27:38.273Z,5.79
2023-05-04T00:30:40.757Z,5.82
2023-05-04T00:33:42.629Z,5.79
2023-05-04T00:36:44.574Z,5.77
2023-05-04T00:39:48.490Z,5.73
2023-05-04T00:42:50.210Z,5.67
2023-05-04T00:45:52.410Z,5.63
2023-05-04T00:48:54.210Z,5.63
2023-05-04T00:51:57.285Z,5.58
2023-05-04T00:55:01.425Z,5.57
2023-05-04T00:58:03.569Z,5.61
2023-05-04T01:01:05.593Z,5.61
2023-05-04T01:04:08.181Z,5.60
2023-05-04T01:07:16.592Z,5.59
2023-05-04T01:10:26.022Z,5.58
2023-05-04T01:13:28.375Z,5.57
2023-05-04T01:16:30.179Z,5.53
2023-05-04T01:19:31.912Z,5.54
2023-05-04T01:22:33.771Z,5.50
2023-05-04T01:26:02.801Z,5.49
2023-05-04T01:29:23.619Z,5.44
2023-05-04T01:32:28.412Z,5.41
2023-05-04T01:35:32.712Z,5.41
2023-05-04T01:38:34.640Z,5.37
2023-05-04T01:41:37.069Z,5.37
2023-05-04T01:44:38.996Z,5.35
2023-05-04T01:47:41.738Z,5.36
2023-05-04T01:50:43.725Z,5.34
2023-05-04T01:53:45.853Z,5.33
2023-05-04T01:56:47.904Z,5.31
2023-05-04T01:59:49.832Z,5.28
2023-05-04T02:02:51.710Z,5.28
2023-05-04T02:05:54.700Z,5.25
2023-05-04T02:08:56.895Z,5.24
2023-05-04T02:11:59.083Z,5.22
2023-05-04T02:15:01.062Z,5.11
2023-05-04T02:18:03.148Z,5.05
2023-05-04T02:21:05.324Z,4.91
2023-05-04T02:24:07.524Z,4.85
2023-05-04T02:27:09.285Z,4.75
2023-05-04T02:30:11.957Z,4.69
2023-05-04T02:33:16.476Z,4.63
2023-05-04T02:36:18.374Z,4.59
2023-05-04T02:39:20.252Z,4.58
2023-05-04T02:42:22.211Z,4.57
2023-05-04T02:45:24.230Z,4.55
2023-05-04T02:48:26.200Z,4.53
2023-05-04T02:51:28.086Z,4.48
2023-05-04T02:54:30.503Z,4.46
2023-05-04T02:57:32.636Z,4.44
2023-05-04T03:00:34.979Z,4.44
2023-05-04T03:03:36.835Z,4.38
2023-05-04T03:06:38.764Z,4.40
2023-05-04T03:09:41.204Z,4.37
2023-05-04T03:12:43.033Z,4.35
2023-05-04T03:15:45.333Z,4.35
2023-05-04T03:18:47.413Z,4.35
2023-05-04T03:21:49.868Z,4.36
2023-05-04T03:24:52.121Z,4.36
2023-05-04T03:27:54.385Z,4.38
2023-05-04T03:30:56.422Z,4.36
2023-05-04T03:33:58.436Z,4.35
2023-05-04T03:37:00.450Z,4.37
2023-05-04T03:40:02.913Z,4.41
2023-05-04T03:43:04.996Z,4.43
2023-05-04T03:46:07.215Z,4.45
2023-05-04T03:49:09.077Z,4.49
2023-05-04T03:52:10.797Z,4.53
2023-05-04T03:55:14.016Z,4.51
2023-05-04T03:58:15.992Z,4.57
2023-05-04T04:01:17.960Z,4.62
2023-05-04T04:04:19.875Z,4.66
2023-05-04T04:07:21.849Z,4.68
2023-05-04T04:10:24.071Z,4.71
2023-05-04T04:13:25.845Z,4.77
2023-05-04T04:16:27.588Z,4.81
2023-05-04T04:19:29.973Z,4.87
2023-05-04T04:22:31.794Z,4.92
2023-05-04T04:25:33.861Z,4.95
2023-05-04T04:28:35.904Z,4.97
2023-05-04T04:31:37.981Z,4.98
2023-05-04T04:34:40.183Z,5.00
2023-05-04T04:37:42.293Z,5.06
2023-05-04T04:40:44.345Z,5.10
2023-05-04T04:43:46.409Z,5.21
2023-05-04T04:46:48.638Z,5.28
2023-05-04T04:49:50.847Z,5.32
2023-05-04T04:52:52.865Z,5.37
2023-05-04T04:55:54.962Z,5.45
2023-05-04T04:58:56.859Z,5.50
2023-05-04T05:01:59.367Z,5.56
2023-05-04T05:05:01.203Z,5.66
2023-05-04T05:08:03.290Z,5.73
2023-05-04T05:11:06.075Z,5.77
2023-05-04T05:14:08.137Z,5.86
2023-05-04T05:17:10.423Z,5.91
2023-05-04T05:20:12.468Z,6.02
2023-05-04T05:23:14.761Z,6.12
2023-05-04T05:26:16.613Z,6.19
2023-05-04T05:29:18.437Z,6.25
2023-05-04T05:32:20.480Z,6.32
2023-05-04T05:35:22.202Z,6.36
2023-05-04T05:38:23.878Z,6.44
2023-05-04T05:41:25.958Z,6.50
2023-05-04T05:44:27.858Z,6.56
2023-05-04T05:47:29.857Z,6.63
2023-05-04T05:50:31.818Z,6.70
2023-05-04T05:53:33.663Z,6.82
2023-05-04T05:56:35.474Z,6.92
2023-05-04T05:59:37.480Z,7.00
2023-05-04T06:02:39.594Z,7.10
2023-05-04T06:05:42.423Z,7.21
2023-05-04T06:08:44.493Z,7.33
2023-05-04T06:11:46.813Z,7.50
2023-05-04T06:14:48.680Z,7.71
2023-05-04T06:17:51.901Z,7.91
2023-05-04T06:21:04.788Z,8.11
2023-05-04T06:24:06.993Z,8.32
2023-05-04T06:27:08.977Z,8.57
2023-05-04T06:30:11.571Z,8.81
2023-05-04T06:33:13.851Z,9.10
2023-05-04T06:36:15.990Z,9.35
2023-05-04T06:39:18.111Z,9.57
2023-05-04T06:42:20.923Z,9.78
2023-05-04T06:45:24.482Z,10.02
2023-05-04T06:48:26.624Z,10.22
2023-05-04T06:51:28.919Z,10.39
2023-05-04T06:54:31.810Z,10.54
2023-05-04T06:57:34.126Z,10.68
2023-05-04T07:00:36.268Z,10.81
2023-05-04T07:03:39.140Z,10.95
2023-05-04T07:06:41.290Z,11.17
2023-05-04T07:09:44.148Z,11.34
2023-05-04T07:12:46.067Z,11.56
2023-05-04T07:15:47.800Z,11.78
2023-05-04T07:18:49.792Z,11.97
2023-05-04T07:21:51.552Z,12.15
2023-05-04T07:24:53.450Z,12.34
2023-05-04T07:27:55.534Z,12.49
2023-05-04T07:30:58.317Z,12.64
2023-05-04T07:33:59.985Z,12.74
2023-05-04T07:37:05.271Z,12.84
2023-05-04T07:40:07.963Z,12.97
2023-05-04T07:43:09.975Z,13.10
2023-05-04T07:46:12.651Z,13.20
2023-05-04T07:49:14.592Z,13.26
2023-05-04T07:52:16.423Z,13.35
2023-05-04T07:55:19.314Z,13.47
2023-05-04T07:58:21.298Z,13.53
2023-05-04T08:01:23.140Z,13.65
2023-05-04T08:04:25.003Z,13.73
2023-05-04T08:07:26.917Z,13.80
2023-05-04T08:10:29.418Z,13.88
2023-05-04T08:13:31.505Z,13.98
2023-05-04T08:16:33.659Z,14.12
2023-05-04T08:19:35.564Z,14.17
2023-05-04T08:22:37.469Z,14.28
2023-05-04T08:25:39.380Z,14.43
2023-05-04T08:28:41.633Z,14.58
2023-05-04T08:31:43.602Z,14.72
2023-05-04T08:34:45.561Z,14.86
2023-05-04T08:37:47.939Z,15.07
2023-05-04T08:40:50.646Z,15.14
2023-05-04T08:43:52.889Z,15.22
2023-05-04T08:46:57.054Z,15.39
2023-05-04T08:49:58.983Z,15.51
2023-05-04T08:53:04.469Z,15.61
2023-05-04T08:56:14.423Z,15.63
2023-05-04T08:59:21.903Z,15.73
2023-05-04T09:02:25.122Z,15.80
2023-05-04T09:05:27.569Z,15.83
2023-05-04T09:08:29.486Z,15.86
2023-05-04T09:11:32.447Z,15.90
2023-05-04T09:14:36.152Z,15.86
2023-05-04T09:17:47.512Z,15.88
2023-05-04T09:20:58.737Z,16.00
2023-05-04T09:24:01.126Z,16.13
2023-05-04T09:27:18.974Z,16.11
2023-05-04T09:30:22.004Z,16.22
2023-05-04T09:33:30.150Z,16.37
2023-05-04T09:36:32.131Z,16.52
2023-05-04T09:39:33.967Z,16.58
2023-05-04T09:42:36.081Z,16.58
2023-05-04T09:45:48.494Z,16.57
2023-05-04T09:48:57.281Z,16.66
2023-05-04T09:52:02.662Z,16.76
2023-05-04T09:55:05.899Z,16.69
2023-05-04T09:58:09.240Z,16.66
2023-05-04T10:01:11.849Z,16.70
2023-05-04T10:04:14.149Z,16.74
2023-05-04T10:07:16.756Z,16.84
2023-05-04T10:10:18.788Z,17.03
2023-05-04T10:13:20.952Z,17.15
2023-05-04T10:16:26.217Z,17.27
2023-05-04T10:20:19.848Z,17.43
2023-05-04T10:23:49.164Z,17.55
2023-05-04T10:27:12.324Z,17.39
2023-05-04T10:30:18.677Z,17.39
2023-05-04T10:33:20.606Z,17.39
2023-05-04T10:36:22.492Z,17.40
2023-05-04T10:39:26.617Z,17.45
2023-05-04T10:42:28.744Z,17.51
2023-05-04T10:45:41.933Z,17.60
2023-05-04T10:48:43.755Z,17.63
2023-05-04T10:51:49.550Z,17.71
2023-05-04T10:54:59.872Z,17.78
2023-05-04T10:58:01.862Z,18.00
2023-05-04T11:01:13.012Z,18.23
2023-05-04T11:04:22.397Z,18.38
2023-05-04T11:07:39.724Z,18.54
2023-05-04T11:10:41.478Z,18.66
2023-05-04T11:13:46.818Z,18.72
2023-05-04T11:16:48.807Z,18.79
2023-05-04T11:19:52.916Z,18.86
2023-05-04T11:22:54.780Z,19.01
2023-05-04T11:25:56.605Z,19.10
2023-05-04T11:28:58.713Z,19.08
2023-05-04T11:32:00.508Z,18.95
2023-05-04T11:35:04.607Z,19.00
2023-05-04T11:38:07.671Z,19.04
2023-05-04T11:41:10.291Z,19.03
2023-05-04T11:44:12.563Z,19.11
2023-05-04T11:47:14.827Z,19.22
2023-05-04T11:50:20.726Z,19.29
2023-05-04T11:53:23.309Z,19.30
2023-05-04T11:56:25.022Z,19.18
2023-05-04T11:59:26.995Z,19.30
2023-05-04T12:02:28.973Z,19.38
2023-05-04T12:05:32.114Z,19.57
2023-05-04T12:08:42.550Z,19.67
2023-05-04T12:11:55.192Z,19.72
2023-05-04T12:14:57.509Z,19.69
2023-05-04T12:18:02.737Z,19.71
2023-05-04T12:21:10.350Z,19.77
2023-05-04T12:24:12.388Z,19.95
2023-05-04T12:27:15.170Z,20.17
2023-05-04T12:30:17.566Z,20.38
2023-05-04T12:33:19.634Z,20.44
2023-05-04T12:36:22.012Z,20.65
2023-05-04T12:39:24.235Z,20.78
2023-05-04T12:42:26.215Z,20.74
2023-05-04T12:45:28.349Z,20.84
2023-05-04T12:48:33.059Z,21.03
2023-05-04T12:51:35.697Z,21.14
2023-05-04T12:54:37.820Z,21.20
2023-05-04T12:57:45.066Z,21.30
2023-05-04T13:00:47.350Z,21.35
2023-05-04T13:03:49.511Z,21.39
2023-05-04T13:06:52.010Z,21.55
2023-05-04T13:09:54.245Z,21.79
2023-05-04T13:12:56.691Z,22.07
2023-05-04T13:15:58.765Z,22.33
2023-05-04T13:19:00.832Z,22.43
2023-05-04T13:22:02.915Z,22.32
2023-05-04T13:25:05.432Z,22.32
2023-05-04T13:28:07.531Z,22.38
2023-05-04T13:31:09.951Z,22.25
2023-05-04T13:34:11.930Z,22.14
2023-05-04T13:37:18.328Z,22.21
2023-05-04T13:40:20.709Z,22.21
2023-05-04T13:43:22.714Z,22.22
2023-05-04T13:46:27.422Z,22.24
2023-05-04T13:49:30.700Z,22.34
2023-05-04T13:52:33.158Z,22.45
2023-05-04T13:55:35.108Z,22.73
2023-05-04T13:58:37.386Z,22.93
2023-05-04T14:01:39.476Z,23.00
2023-05-04T14:04:44.452Z,23.36
2023-05-04T14:07:46.446Z,23.46
2023-05-04T14:10:48.483Z,23.41
2023-05-04T14:13:51.555Z,23.36
2023-05-04T14:16:53.639Z,23.44
2023-05-04T14:19:56.235Z,23.38
2023-05-04T14:22:58.413Z,23.39
2023-05-04T14:26:01.034Z,23.47
2023-05-04T14:29:03.700Z,23.68
2023-05-04T14:32:05.986Z,23.77
2023-05-04T14:35:09.941Z,24.14
2023-05-04T14:38:13.265Z,24.38
2023-05-04T14:41:15.421Z,24.47
2023-05-04T14:44:17.891Z,24.56
2023-05-04T14:47:20.301Z,24.63
2023-05-04T14:50:22.751Z,24.28
2023-05-04T14:53:25.017Z,23.93
2023-05-04T14:56:28.173Z,23.90
2023-05-04T14:59:30.469Z,24.01
2023-05-04T15:02:32.531Z,24.28
2023-05-04T15:05:34.809Z,24.59
2023-05-04T15:08:36.870Z,24.86
2023-05-04T15:11:39.360Z,24.91
2023-05-04T15:14:41.758Z,24.86
2023-05-04T15:17:43.894Z,24.61
2023-05-04T15:20:45.916Z,24.62
2023-05-04T15:23:48.048Z,24.65
2023-05-04T15:26:50.069Z,24.84
2023-05-04T15:29:52.400Z,24.99
2023-05-04T15:32:54.545Z,25.10
2023-05-04T15:35:56.609Z,25.07
2023-05-04T15:38:58.432Z,25.27
2023-05-04T15:42:00.533Z,25.56
2023-05-04T15:45:02.463Z,25.73
2023-05-04T15:48:04.744Z,25.86
2023-05-04T15:51:12.872Z,25.61
2023-05-04T15:54:15.359Z,25.63
2023-05-04T15:57:17.522Z,25.65
2023-05-04T16:00:19.894Z,25.45
2023-05-04T16:03:23.791Z,25.20
2023-05-04T16:06:26.621Z,25.11
2023-05-04T16:09:30.162Z,25.05
2023-05-04T16:12:32.577Z,24.96
2023-05-04T16:15:34.690Z,24.78
2023-05-04T16:18:36.997Z,24.48
2023-05-04T16:21:39.136Z,24.35
2023-05-04T16:24:41.127Z,24.04
2023-05-04T16:27:43.336Z,23.78
2023-05-04T16:30:45.664Z,23.68
2023-05-04T16:33:48.175Z,23.69
2023-05-04T16:36:50.205Z,23.70
2023-05-04T16:39:51.959Z,23.62
2023-05-04T16:42:53.993Z,23.58
2023-05-04T16:45:55.867Z,23.42
2023-05-04T16:48:57.789Z,23.25
2023-05-04T16:51:59.762Z,23.20
2023-05-04T16:55:02.293Z,22.98
2023-05-04T16:58:04.180Z,22.69
2023-05-04T17:01:06.339Z,22.54
2023-05-04T17:04:08.984Z,22.40
2023-05-04T17:07:11.110Z,22.19
2023-05-04T17:10:12.978Z,21.84
2023-05-04T17:13:15.087Z,21.31
2023-05-04T17:16:18.952Z,20.92
2023-05-04T17:19:20.858Z,20.70
2023-05-04T17:22:23.809Z,20.64
2023-05-04T17:25:27.130Z,20.66
2023-05-04T17:28:30.210Z,20.67
2023-05-04T17:31:32.122Z,20.64
2023-05-04T17:34:34.958Z,20.49
2023-05-04T17:37:36.777Z,20.20
2023-05-04T17:40:38.511Z,19.83
2023-05-04T17:43:40.438Z,19.53
2023-05-04T17:46:42.623Z,19.27
2023-05-04T17:49:44.716Z,18.99
2023-05-04T17:52:51.697Z,18.73
2023-05-04T17:55:53.621Z,18.51
2023-05-04T17:58:55.877Z,18.28
2023-05-04T18:01:57.771Z,18.07
2023-05-04T18:04:59.741Z,17.81
2023-05-04T18:08:02.031Z,17.55
2023-05-04T18:11:03.876Z,17.33
2023-05-04T18:14:05.666Z,17.12
2023-05-04T18:17:08.046Z,16.90
2023-05-04T18:20:12.734Z,16.77
2023-05-04T18:23:14.416Z,16.54
2023-05-04T18:26:22.801Z,16.33
2023-05-04T18:29:24.744Z,16.17
2023-05-04T18:32:26.665Z,16.04
2023-05-04T18:35:28.864Z,15.88
2023-05-04T18:38:30.588Z,15.71
2023-05-04T18:41:32.290Z,15.53
2023-05-04T18:44:56.281Z,15.37
2023-05-04T18:47:58.226Z,15.19
2023-05-04T18:51:00.715Z,15.05
2023-05-04T18:54:02.467Z,14.92
2023-05-04T18:57:04.305Z,14.80
2023-05-04T19:00:07.355Z,14.71
2023-05-04T19:03:09.426Z,14.62
2023-05-04T19:06:12.105Z,14.53
2023-05-04T19:09:14.705Z,14.44
2023-05-04T19:12:16.484Z,14.39
2023-05-04T19:15:18.639Z,14.32
2023-05-04T19:18:20.960Z,14.27
2023-05-04T19:21:22.806Z,14.21
2023-05-04T19:24:24.733Z,14.12
2023-05-04T19:27:26.421Z,14.04
2023-05-04T19:30:28.128Z,13.97
2023-05-04T19:33:44.541Z,13.91
2023-05-04T19:36:49.959Z,13.90
2023-05-04T19:39:51.749Z,13.83
2023-05-04T19:42:53.857Z,13.78
2023-05-04T19:45:57.393Z,13.68
2023-05-04T19:48:59.733Z,13.63
2023-05-04T19:52:01.636Z,13.53
2023-05-04T19:55:03.482Z,13.47
2023-05-04T19:58:06.009Z,13.40
2023-05-04T20:01:07.992Z,13.30
2023-05-04T20:04:09.895Z,13.26
2023-05-04T20:07:11.787Z,13.19
2023-05-04T20:10:13.575Z,13.14
2023-05-04T20:13:15.299Z,13.12
2023-05-04T20:16:17.628Z,13.07
2023-05-04T20:19:19.420Z,13.01
2023-05-04T20:22:21.093Z,12.95
2023-05-04T20:25:23.034Z,12.90
2023-05-04T20:28:24.586Z,12.82
2023-05-04T20:31:26.977Z,12.73
2023-05-04T20:34:29.268Z,12.69
2023-05-04T20:37:31.484Z,12.65
2023-05-04T20:40:33.398Z,12.59
2023-05-04T20:43:36.214Z,12.57
2023-05-04T20:46:38.349Z,12.54
2023-05-04T20:49:40.145Z,12.48
2023-05-04T20:52:41.950Z,12.45
2023-05-04T20:55:44.024Z,12.36
2023-05-04T20:58:45.843Z,12.28
2023-05-04T21:01:47.919Z,12.21
2023-05-04T21:04:49.837Z,12.17
2023-05-04T21:07:54.572Z,12.10
2023-05-04T21:10:56.936Z,12.01
2023-05-04T21:13:58.830Z,11.94
2023-05-04T21:17:00.948Z,11.85
2023-05-04T21:20:03.082Z,11.77
2023-05-04T21:23:04.866Z,11.73
2023-05-04T21:26:06.561Z,11.70
2023-05-04T21:29:17.531Z,11.67
2023-05-04T21:32:19.151Z,11.59
2023-05-04T21:35:22.013Z,11.54
2023-05-04T21:38:23.985Z,11.52
2023-05-04T21:41:25.605Z,11.47
2023-05-04T21:44:27.363Z,11.42
2023-05-04T21:47:29.785Z,11.38
2023-05-04T21:50:31.517Z,11.30
2023-05-04T21:53:33.719Z,11.28
2023-05-04T21:56:35.530Z,11.26
2023-05-04T21:59:37.366Z,11.22
2023-05-04T22:02:39.353Z,11.14
2023-05-04T22:05:41.183Z,11.09
2023-05-04T22:08:43.088Z,11.04
2023-05-04T22:11:46.512Z,11.00
2023-05-04T22:14:48.226Z,10.95
2023-05-04T22:17:50.074Z,10.91
2023-05-04T22:20:51.927Z,10.88
2023-05-04T22:23:53.848Z,10.84
2023-05-04T22:26:55.661Z,10.83
2023-05-04T22:29:57.463Z,10.83
2023-05-04T22:32:59.603Z,10.84
2023-05-04T22:36:01.475Z,10.78
2023-05-04T22:39:03.419Z,10.76
2023-05-04T22:42:05.270Z,10.72
2023-05-04T22:45:07.560Z,10.69
2023-05-04T22:48:09.447Z,10.66
2023-05-04T22:51:11.344Z,10.61
2023-05-04T22:54:13.465Z,10.53
2023-05-04T22:57:15.795Z,10.48
2023-05-04T23:00:18.536Z,10.43
2023-05-04T23:03:20.493Z,10.36
2023-05-04T23:06:22.633Z,10.29
2023-05-04T23:09:24.337Z,10.24
2023-05-04T23:12:27.493Z,10.18
2023-05-04T23:15:29.385Z,10.14
2023-05-04T23:18:33.104Z,10.09
2023-05-04T23:21:35.052Z,10.05
2023-05-04T23:24:37.159Z,9.99
2023-05-04T23:27:39.748Z,9.93
2023-05-04T23:30:41.483Z,9.85
2023-05-04T23:33:43.550Z,9.81
2023-05-04T23:36:46.469Z,9.77
2023-05-04T23:39:49.625Z,9.75
2023-05-04T23:42:51.767Z,9.75
2023-05-04T23:46:04.968Z,9.70
2023-05-04T23:49:06.730Z,9.68
2023-05-04T23:52:08.595Z,9.66
2023-05-04T23:55:10.628Z,9.61
2023-05-04T23:58:12.510Z,9.59
